Time;durP1;ratioP1;P1;durP2;ratioP2;P2;SDS_P1;SDS_P2;PMS_P1;PMS_P2;Temp;Humidity;BMP_temperature;BMP_pressure;BME280_temperature;BME280_humidity;BME280_pressure;Samples;Min_cycle;Max_cycle;Signal;HPM_P1;HPM_P2
2023/12/24 00:01:44;;;;;;;1.50;0.93;;;23.00;45.60;;;;;;5115627;28;20028;-42
2023/12/24 00:04:11;;;;;;;1.35;1.00;;;23.00;45.50;;;;;;5112986;27;20487;-40
2023/12/24 00:06:37;;;;;;;1.15;1.00;;;23.00;45.40;;;;;;5115347;27;20568;-40
2023/12/24 00:09:03;;;;;;;2.03;1.20;;;23.00;45.60;;;;;;5113604;27;20028;-40
2023/12/24 00:11:31;;;;;;;1.63;1.08;;;23.00;45.70;;;;;;5112084;28;20910;-40
2023/12/24 00:13:57;;;;;;;2.78;1.20;;;22.90;45.80;;;;;;5121495;27;20087;-40
2023/12/24 00:16:23;;;;;;;1.25;0.98;;;22.90;45.90;;;;;;5119460;28;20028;-40
2023/12/24 00:18:49;;;;;;;1.73;1.10;;;22.90;46.00;;;;;;5103148;28;20044;-40
2023/12/24 00:21:15;;;;;;;1.08;0.93;;;22.90;45.80;;;;;;5112426;27;20034;-40
2023/12/24 00:23:42;;;;;;;1.58;0.73;;;22.90;45.70;;;;;;5104100;28;20035;-41
2023/12/24 00:26:09;;;;;;;1.67;1.00;;;22.90;45.70;;;;;;5107881;28;20038;-40
2023/12/24 00:28:36;;;;;;;1.40;0.90;;;22.90;45.70;;;;;;5115949;28;20035;-40
2023/12/24 00:31:02;;;;;;;2.13;1.00;;;22.80;45.80;;;;;;5104439;28;20020;-39
2023/12/24 00:33:28;;;;;;;1.10;0.98;;;22.80;46.00;;;;;;5103994;28;20065;-39
2023/12/24 00:35:54;;;;;;;2.40;0.90;;;22.80;46.60;;;;;;5112122;27;20024;-40
2023/12/24 00:38:20;;;;;;;2.58;0.98;;;22.80;46.40;;;;;;5091162;28;20039;-39
2023/12/24 00:40:46;;;;;;;1.17;0.80;;;22.80;46.20;;;;;;5105575;28;20027;-39
2023/12/24 00:43:12;;;;;;;1.10;0.77;;;22.80;46.20;;;;;;5111806;28;20051;-40
2023/12/24 00:45:39;;;;;;;1.05;0.82;;;22.90;46.00;;;;;;5110773;28;20453;-40
2023/12/24 00:48:05;;;;;;;1.97;0.83;;;22.90;45.80;;;;;;5097134;28;20028;-40
2023/12/24 00:50:31;;;;;;;1.33;0.90;;;22.80;45.90;;;;;;5113050;28;20034;-40
2023/12/24 00:52:57;;;;;;;1.75;1.05;;;22.80;46.00;;;;;;5114956;28;20053;-40
2023/12/24 00:55:23;;;;;;;2.00;0.95;;;22.80;46.10;;;;;;5109237;28;20350;-40
2023/12/24 00:57:50;;;;;;;2.88;0.90;;;22.80;46.20;;;;;;5106881;28;20044;-40
2023/12/24 01:00:16;;;;;;;2.38;0.90;;;22.80;46.10;;;;;;5112989;28;20052;-39
2023/12/24 01:02:42;;;;;;;2.97;1.00;;;22.80;46.20;;;;;;5109869;28;20101;-41
2023/12/24 01:05:08;;;;;;;7.25;1.02;;;22.80;46.10;;;;;;5109444;28;20024;-40
2023/12/24 01:07:34;;;;;;;4.78;1.10;;;22.80;46.10;;;;;;5112620;28;20030;-36
2023/12/24 01:10:00;;;;;;;4.90;0.90;;;22.80;46.20;;;;;;5119615;28;20055;-38
2023/12/24 01:12:27;;;;;;;8.25;0.90;;;22.70;46.10;;;;;;5116141;27;20031;-39
2023/12/24 01:14:53;;;;;;;6.28;0.98;;;22.70;46.20;;;;;;5112695;28;20036;-40
2023/12/24 01:17:19;;;;;;;3.42;0.90;;;22.70;46.20;;;;;;5112216;28;20099;-39
2023/12/24 01:19:45;;;;;;;1.08;0.80;;;22.60;46.10;;;;;;5111696;28;20073;-39
2023/12/24 01:22:11;;;;;;;2.90;1.00;;;22.60;45.80;;;;;;5113408;28;20024;-38
2023/12/24 01:24:37;;;;;;;1.65;0.70;;;22.70;45.70;;;;;;5110120;28;20484;-38
2023/12/24 01:27:04;;;;;;;1.85;0.70;;;22.70;45.60;;;;;;5114404;28;20032;-38
2023/12/24 01:29:30;;;;;;;1.85;1.05;;;22.80;45.50;;;;;;5122436;28;20680;-39
2023/12/24 01:31:56;;;;;;;0.95;0.80;;;22.80;45.30;;;;;;5112968;28;20031;-39
2023/12/24 01:34:22;;;;;;;1.60;1.00;;;22.80;45.30;;;;;;5110957;28;20106;-39
2023/12/24 01:36:48;;;;;;;1.25;0.90;;;22.70;45.50;;;;;;5114001;28;20028;-39
2023/12/24 01:39:15;;;;;;;2.13;1.08;;;22.70;45.50;;;;;;5112300;28;20054;-39
2023/12/24 01:41:41;;;;;;;1.67;1.10;;;22.70;45.30;;;;;;5100362;28;20020;-39
2023/12/24 01:44:07;;;;;;;2.28;1.40;;;22.70;45.30;;;;;;5113547;28;20039;-38
2023/12/24 01:46:33;;;;;;;1.77;1.38;;;22.70;45.40;;;;;;5114266;28;20480;-39
2023/12/24 01:48:59;;;;;;;2.22;1.20;;;22.60;45.50;;;;;;5094327;28;20043;-39
2023/12/24 01:51:25;;;;;;;1.80;1.40;;;22.60;45.50;;;;;;5094802;28;20054;-39
2023/12/24 01:53:51;;;;;;;3.08;1.27;;;22.50;45.40;;;;;;5111455;28;20028;-39
2023/12/24 01:56:19;;;;;;;3.70;1.10;;;22.50;45.40;;;;;;5114200;28;20085;-39
2023/12/24 01:58:45;;;;;;;2.05;1.30;;;22.50;45.30;;;;;;5095937;28;20040;-39
2023/12/24 02:01:12;;;;;;;2.85;1.75;;;22.50;45.20;;;;;;5119386;28;20024;-39
2023/12/24 02:03:38;;;;;;;3.55;1.88;;;22.50;45.30;;;;;;5119388;28;20130;-39
2023/12/24 02:06:05;;;;;;;1.75;1.65;;;22.50;45.50;;;;;;5120878;28;20028;-39
2023/12/24 02:08:32;;;;;;;2.10;1.50;;;22.40;45.40;;;;;;5110187;27;20035;-38
2023/12/24 02:10:58;;;;;;;2.17;1.67;;;22.40;45.40;;;;;;5116773;28;20708;-38
2023/12/24 02:13:24;;;;;;;2.50;1.40;;;22.40;45.30;;;;;;5117058;28;20036;-38
2023/12/24 02:15:51;;;;;;;1.63;1.50;;;22.50;45.20;;;;;;5114952;28;20028;-39
2023/12/24 02:18:18;;;;;;;1.77;1.45;;;22.60;45.10;;;;;;5119497;28;20035;-39
2023/12/24 02:20:45;;;;;;;2.50;2.15;;;22.60;45.00;;;;;;5115398;28;20020;-39
2023/12/24 02:23:11;;;;;;;3.33;1.92;;;22.60;45.10;;;;;;5110624;28;20028;-38
2023/12/24 02:25:37;;;;;;;2.83;2.10;;;22.60;45.20;;;;;;5116833;27;20091;-45
2023/12/24 02:28:13;;;;;;;2.10;1.90;;;22.50;45.30;;;;;;5111044;28;20389;-38
2023/12/24 02:30:45;;;;;;;3.17;2.08;;;22.50;45.30;;;;;;5090780;28;20020;-38
2023/12/24 02:33:12;;;;;;;2.50;2.03;;;22.40;45.30;;;;;;5095695;28;20050;-38
2023/12/24 02:35:38;;;;;;;;;;;22.40;45.20;;;;;;5093534;28;20267;-40
2023/12/24 02:38:04;;;;;;;3.00;2.35;;;22.40;45.10;;;;;;5125975;27;19916;-39
2023/12/24 02:40:30;;;;;;;2.90;2.28;;;22.40;45.20;;;;;;5113476;28;20036;-39
2023/12/24 02:42:57;;;;;;;3.15;2.38;;;22.40;45.30;;;;;;5111813;27;20038;-39
2023/12/24 02:45:23;;;;;;;2.65;2.15;;;22.30;45.30;;;;;;5113766;27;20020;-39
2023/12/24 02:48:09;;;;;;;3.92;2.58;;;22.30;45.30;;;;;;5056407;28;20051;-39
2023/12/24 02:50:35;;;;;;;4.45;2.42;;;22.20;45.30;;;;;;5059994;28;20041;-39
2023/12/24 02:53:01;;;;;;;2.95;2.30;;;22.20;45.30;;;;;;5059521;28;20037;-38
2023/12/24 02:55:28;;;;;;;3.97;2.70;;;22.30;45.20;;;;;;5057098;28;20037;-38
2023/12/24 02:57:54;;;;;;;3.15;2.42;;;22.40;45.20;;;;;;5052163;28;20048;-38
2023/12/24 03:00:20;;;;;;;2.88;2.38;;;22.40;45.10;;;;;;5055776;28;20081;-39
2023/12/24 03:02:46;;;;;;;3.90;2.85;;;22.40;45.30;;;;;;5059498;28;20072;-39
2023/12/24 03:05:12;;;;;;;5.03;2.72;;;22.30;45.30;;;;;;5055370;28;20049;-38
2023/12/24 03:07:38;;;;;;;4.80;2.70;;;22.30;45.30;;;;;;5058592;28;20079;-36
2023/12/24 03:10:05;;;;;;;4.53;2.42;;;22.20;45.30;;;;;;5054603;28;20049;-39
2023/12/24 03:12:32;;;;;;;6.03;2.72;;;22.20;46.00;;;;;;5052839;28;20045;-37
2023/12/24 03:14:58;;;;;;;7.07;2.70;;;22.30;46.10;;;;;;5053142;28;20037;-36
2023/12/24 03:17:24;;;;;;;10.00;2.75;;;22.30;45.90;;;;;;5058827;28;20076;-33
2023/12/24 03:19:50;;;;;;;5.43;2.67;;;22.30;46.20;;;;;;5052302;28;20589;-36
2023/12/24 03:22:36;;;;;;;7.70;3.33;;;22.30;46.30;;;;;;5036993;28;20581;-36
2023/12/24 03:25:04;;;;;;;5.53;2.67;;;22.30;46.40;;;;;;5048232;28;20095;-37
2023/12/24 03:27:30;;;;;;;3.92;2.85;;;22.30;46.30;;;;;;5075019;28;20805;-36
2023/12/24 03:29:56;;;;;;;4.80;3.00;;;22.20;46.10;;;;;;5075385;28;20037;-38
2023/12/24 03:32:22;;;;;;;5.65;2.75;;;22.30;46.20;;;;;;5070993;28;20121;-38
2023/12/24 03:34:48;;;;;;;4.07;2.65;;;22.30;46.00;;;;;;5071617;28;20047;-38
2023/12/24 03:37:14;;;;;;;3.33;2.67;;;22.30;46.10;;;;;;5072856;28;20032;-37
2023/12/24 03:39:40;;;;;;;3.92;3.00;;;22.40;46.20;;;;;;5075569;28;20067;-37
2023/12/24 03:42:07;;;;;;;4.30;2.35;;;22.50;46.00;;;;;;5071546;28;20028;-38
2023/12/24 03:44:33;;;;;;;5.78;2.60;;;22.60;46.00;;;;;;5073140;28;20032;-38
2023/12/24 03:46:59;;;;;;;3.97;2.88;;;22.70;45.70;;;;;;5073278;28;20045;-38
2023/12/24 03:49:25;;;;;;;3.22;2.80;;;22.60;45.60;;;;;;5075989;28;20078;-39
2023/12/24 03:51:51;;;;;;;3.80;3.10;;;22.60;45.80;;;;;;5078525;28;20033;-39
2023/12/24 03:54:21;;;;;;;3.05;2.72;;;22.60;45.80;;;;;;5077077;28;20108;-39
2023/12/24 03:56:48;;;;;;;4.22;3.45;;;22.50;45.90;;;;;;5068625;28;20041;-38
2023/12/24 03:59:16;;;;;;;6.13;3.05;;;22.50;46.10;;;;;;5073478;28;20036;-38
2023/12/24 04:01:43;;;;;;;3.83;3.00;;;22.50;46.10;;;;;;5093018;28;20061;-38
2023/12/24 04:04:09;;;;;;;3.65;3.17;;;22.40;46.10;;;;;;5095045;28;20033;-38
2023/12/24 04:06:35;;;;;;;4.20;3.22;;;22.40;46.10;;;;;;5096564;28;20503;-38
2023/12/24 04:09:01;;;;;;;3.88;3.30;;;22.40;45.80;;;;;;5091100;28;20036;-38
2023/12/24 04:11:27;;;;;;;4.13;3.40;;;22.40;46.00;;;;;;5090872;28;20132;-38
2023/12/24 04:13:53;;;;;;;4.13;3.10;;;22.30;46.10;;;;;;5087897;28;20028;-38
2023/12/24 04:16:19;;;;;;;4.38;3.10;;;22.30;46.10;;;;;;5099842;28;20511;-38
2023/12/24 04:18:46;;;;;;;4.05;2.72;;;22.20;46.10;;;;;;5095561;28;20040;-38
2023/12/24 04:21:12;;;;;;;3.58;2.85;;;22.20;46.20;;;;;;5100881;28;20097;-39
2023/12/24 04:23:38;;;;;;;3.75;2.88;;;22.20;46.10;;;;;;5086897;28;20035;-37
2023/12/24 04:26:04;;;;;;;3.90;2.83;;;22.30;46.00;;;;;;5100228;28;20032;-37
2023/12/24 04:28:32;;;;;;;4.50;3.33;;;22.40;45.80;;;;;;5091260;28;20134;-37
2023/12/24 04:30:58;;;;;;;3.83;2.92;;;22.50;45.80;;;;;;5095831;28;20036;-37
2023/12/24 04:33:24;;;;;;;3.50;2.90;;;22.60;45.70;;;;;;5091410;28;20444;-37
2023/12/24 04:35:50;;;;;;;3.88;3.00;;;22.70;45.60;;;;;;5089621;28;20054;-37
2023/12/24 04:38:16;;;;;;;4.38;2.85;;;22.70;45.50;;;;;;5096911;28;20771;-37
2023/12/24 04:40:42;;;;;;;4.07;3.22;;;22.60;45.50;;;;;;5094998;28;20028;-37
2023/12/24 04:43:09;;;;;;;3.42;2.90;;;22.60;45.50;;;;;;5092362;28;20064;-37
2023/12/24 04:45:35;;;;;;;3.83;3.35;;;22.50;45.70;;;;;;5096513;28;20024;-38
2023/12/24 04:48:03;;;;;;;3.83;3.22;;;22.50;45.80;;;;;;5095971;28;20042;-38
2023/12/24 04:50:29;;;;;;;4.43;3.40;;;22.40;45.80;;;;;;5109089;28;20032;-38
2023/12/24 04:52:55;;;;;;;3.17;2.87;;;22.40;45.90;;;;;;5117773;28;20499;-38
2023/12/24 04:55:25;;;;;;;3.60;3.03;;;22.30;46.00;;;;;;5110989;28;20035;-38
2023/12/24 04:57:51;;;;;;;4.22;3.42;;;22.40;45.80;;;;;;5117057;28;20320;-38
2023/12/24 05:00:17;;;;;;;4.25;3.45;;;22.40;45.70;;;;;;5113439;28;20042;-37
2023/12/24 05:02:43;;;;;;;4.40;3.03;;;22.30;45.90;;;;;;5114334;28;20020;-37
2023/12/24 05:05:10;;;;;;;5.22;3.75;;;22.30;46.00;;;;;;5114170;28;20032;-37
2023/12/24 05:07:36;;;;;;;4.55;3.20;;;22.20;46.00;;;;;;5117038;28;20027;-37
2023/12/24 05:10:03;;;;;;;3.72;3.33;;;22.20;46.00;;;;;;5109744;28;20040;-37
2023/12/24 05:12:29;;;;;;;3.20;2.80;;;22.20;46.10;;;;;;5116265;28;20027;-37
2023/12/24 05:14:55;;;;;;;3.70;3.20;;;22.20;45.90;;;;;;5115113;28;20052;-37
2023/12/24 05:17:21;;;;;;;4.35;2.88;;;22.30;45.80;;;;;;5117302;28;20035;-37
2023/12/24 05:19:47;;;;;;;4.45;3.00;;;22.40;45.70;;;;;;5110635;28;20097;-37
2023/12/24 05:22:13;;;;;;;3.72;2.95;;;22.50;45.60;;;;;;5117839;28;20031;-38
2023/12/24 05:24:39;;;;;;;3.72;3.10;;;22.60;45.60;;;;;;5106536;28;20551;-38
2023/12/24 05:27:05;;;;;;;3.40;3.00;;;22.70;45.50;;;;;;5119886;28;20024;-37
2023/12/24 05:29:32;;;;;;;3.58;2.67;;;22.70;45.30;;;;;;5105985;28;20031;-37
2023/12/24 05:31:58;;;;;;;3.80;3.20;;;22.60;45.30;;;;;;5113816;28;20040;-37
2023/12/24 05:34:24;;;;;;;4.10;3.15;;;22.60;45.40;;;;;;5106207;28;20396;-37
2023/12/24 05:36:50;;;;;;;4.65;3.67;;;22.50;45.60;;;;;;5107505;28;20024;-37
2023/12/24 05:39:17;;;;;;;4.10;3.10;;;22.50;45.70;;;;;;5109267;28;20062;-38
2023/12/24 05:41:44;;;;;;;4.47;3.42;;;22.40;45.70;;;;;;5113195;28;20059;-37
2023/12/24 05:44:11;;;;;;;4.20;3.60;;;22.40;45.70;;;;;;5116137;28;20040;-36
2023/12/24 05:46:37;;;;;;;4.07;3.37;;;22.40;45.70;;;;;;5116907;28;20047;-36
2023/12/24 05:49:03;;;;;;;4.13;3.10;;;22.40;45.40;;;;;;5120374;28;20288;-37
2023/12/24 05:51:29;;;;;;;3.63;3.25;;;22.40;45.60;;;;;;5104596;28;20044;-37
2023/12/24 05:53:55;;;;;;;5.53;3.50;;;22.30;45.70;;;;;;5109476;28;20028;-36
2023/12/24 05:56:21;;;;;;;3.90;3.50;;;22.30;45.80;;;;;;5117842;28;20028;-36
2023/12/24 05:58:47;;;;;;;4.13;3.38;;;22.20;45.80;;;;;;5116268;28;20059;-37
2023/12/24 06:01:14;;;;;;;5.43;3.72;;;22.20;45.90;;;;;;5117586;28;20030;-37
2023/12/24 06:03:40;;;;;;;4.97;3.55;;;22.20;45.70;;;;;;5114166;28;20027;-37
2023/12/24 06:06:06;;;;;;;5.78;3.83;;;22.20;45.60;;;;;;5115950;28;20032;-37
2023/12/24 06:08:32;;;;;;;4.72;3.50;;;22.20;45.80;;;;;;5094242;28;20609;-38
2023/12/24 06:10:58;;;;;;;4.95;3.50;;;22.10;45.90;;;;;;5109962;28;20042;-37
2023/12/24 06:13:24;;;;;;;4.68;3.00;;;22.10;45.80;;;;;;5121982;27;20027;-38
2023/12/24 06:15:50;;;;;;;3.45;2.83;;;22.20;45.90;;;;;;5111628;28;20024;-38
2023/12/24 06:18:16;;;;;;;3.60;3.10;;;22.30;45.80;;;;;;5120692;27;20080;-38
2023/12/24 06:20:43;;;;;;;3.65;3.35;;;22.40;45.60;;;;;;5123922;27;20035;-38
2023/12/24 06:23:09;;;;;;;4.53;3.45;;;22.40;45.60;;;;;;5116005;27;20039;-38
2023/12/24 06:25:35;;;;;;;4.05;3.42;;;22.40;45.70;;;;;;5112059;28;20051;-38
2023/12/24 06:28:01;;;;;;;4.07;3.20;;;22.30;45.80;;;;;;5114940;28;20023;-38
2023/12/24 06:30:27;;;;;;;4.68;3.78;;;22.30;45.80;;;;;;5112462;28;20111;-38
2023/12/24 06:32:54;;;;;;;4.50;3.65;;;22.20;45.90;;;;;;5113984;28;20096;-38
2023/12/24 06:35:21;;;;;;;4.47;3.55;;;22.20;45.90;;;;;;5115230;27;20047;-38
2023/12/24 06:37:47;;;;;;;;;;;22.30;45.80;;;;;;5115849;28;20065;-38
2023/12/24 06:40:13;;;;;;;3.60;3.20;;;22.20;45.70;;;;;;5109917;28;19998;-38
2023/12/24 06:42:39;;;;;;;4.57;3.50;;;22.20;45.90;;;;;;5110746;27;20028;-38
2023/12/24 06:45:06;;;;;;;4.75;3.50;;;22.10;45.80;;;;;;5116630;27;20028;-38
2023/12/24 06:47:32;;;;;;;4.75;3.45;;;22.10;46.00;;;;;;5115767;28;20030;-36
2023/12/24 06:49:58;;;;;;;4.93;3.60;;;22.00;46.00;;;;;;5117464;28;20063;-37
2023/12/24 06:52:24;;;;;;;4.35;3.40;;;22.10;46.20;;;;;;5109085;28;20150;-39
2023/12/24 06:54:50;;;;;;;4.45;3.60;;;22.10;46.00;;;;;;5108758;28;20088;-38
2023/12/24 06:57:16;;;;;;;3.55;2.90;;;22.20;45.90;;;;;;5112704;27;20032;-38
2023/12/24 06:59:42;;;;;;;5.97;3.17;;;22.20;45.80;;;;;;5119195;28;20046;-38
2023/12/24 07:02:09;;;;;;;4.22;3.17;;;22.30;45.70;;;;;;5122564;28;20020;-38
2023/12/24 07:04:35;;;;;;;3.35;2.97;;;22.40;45.70;;;;;;5116394;28;20024;-38
2023/12/24 07:07:01;;;;;;;3.53;2.95;;;22.50;45.70;;;;;;5112220;28;20039;-39
2023/12/24 07:09:27;;;;;;;3.53;2.70;;;22.50;45.40;;;;;;5121264;28;20039;-39
2023/12/24 07:11:53;;;;;;;4.90;3.42;;;22.50;45.50;;;;;;5116946;28;20020;-38
2023/12/24 07:14:19;;;;;;;4.78;3.53;;;22.50;45.50;;;;;;5107926;28;20036;-39
2023/12/24 07:16:45;;;;;;;5.85;3.25;;;22.50;45.60;;;;;;5121523;27;20028;-39
2023/12/24 07:19:12;;;;;;;4.03;3.45;;;22.40;45.70;;;;;;5112922;28;20183;-39
2023/12/24 07:21:38;;;;;;;4.00;3.10;;;22.30;45.70;;;;;;5118815;27;20020;-39
2023/12/24 07:24:04;;;;;;;3.28;2.88;;;22.30;45.80;;;;;;5116735;28;20644;-38
2023/12/24 07:26:30;;;;;;;4.78;3.38;;;22.30;45.70;;;;;;5112677;28;20031;-38
2023/12/24 07:28:56;;;;;;;3.85;3.30;;;22.40;45.50;;;;;;5113814;28;20043;-38
2023/12/24 07:31:22;;;;;;;3.80;3.40;;;22.30;45.50;;;;;;5117347;28;20024;-38
2023/12/24 07:33:49;;;;;;;3.88;3.25;;;22.30;45.70;;;;;;5114735;28;20118;-38
2023/12/24 07:36:15;;;;;;;4.68;3.40;;;22.20;45.70;;;;;;5117658;28;20096;-41
2023/12/24 07:38:41;;;;;;;4.25;3.30;;;22.20;45.90;;;;;;5121458;28;20032;-38
2023/12/24 07:41:08;;;;;;;4.07;3.10;;;22.10;45.80;;;;;;5116984;28;20126;-37
2023/12/24 07:43:34;;;;;;;4.93;3.50;;;22.20;45.70;;;;;;5110592;28;20035;-37
2023/12/24 07:46:00;;;;;;;4.30;3.25;;;22.30;45.40;;;;;;5110605;28;20043;-37
2023/12/24 07:48:26;;;;;;;4.53;2.95;;;22.30;45.40;;;;;;5116497;27;20503;-38
2023/12/24 07:50:52;;;;;;;4.38;3.20;;;22.40;45.40;;;;;;5111196;27;20077;-38
2023/12/24 07:53:19;;;;;;;4.32;3.20;;;22.40;45.40;;;;;;5112564;27;20028;-38
2023/12/24 07:55:45;;;;;;;3.33;2.60;;;22.50;45.40;;;;;;5118124;28;20023;-38
2023/12/24 07:58:11;;;;;;;3.55;3.00;;;22.60;45.40;;;;;;5122465;28;20036;-38
2023/12/24 08:00:37;;;;;;;3.53;2.78;;;22.60;45.20;;;;;;5119636;28;20024;-38
2023/12/24 08:03:03;;;;;;;3.47;2.88;;;22.60;45.30;;;;;;5111166;28;20055;-38
2023/12/24 08:05:29;;;;;;;3.43;2.90;;;22.50;45.30;;;;;;5114554;28;20036;-38
2023/12/24 08:07:56;;;;;;;4.35;2.95;;;22.50;45.30;;;;;;5123013;28;20023;-38
2023/12/24 08:10:22;;;;;;;4.13;2.97;;;22.40;45.40;;;;;;5119924;27;20027;-38
2023/12/24 08:12:48;;;;;;;4.40;3.38;;;22.30;45.50;;;;;;5117249;28;20127;-38
2023/12/24 08:15:14;;;;;;;4.20;3.17;;;22.30;45.60;;;;;;5110881;28;20109;-38
2023/12/24 08:17:40;;;;;;;5.85;3.33;;;22.40;45.40;;;;;;5119598;28;20168;-38
2023/12/24 08:20:08;;;;;;;2.65;2.20;;;22.40;45.40;;;;;;5123664;27;20047;-38
2023/12/24 08:22:36;;;;;;;4.35;3.50;;;22.30;45.50;;;;;;5114577;28;20124;-37
2023/12/24 08:25:02;;;;;;;4.05;3.30;;;22.20;45.60;;;;;;5108350;28;20057;-37
2023/12/24 08:27:29;;;;;;;3.67;2.85;;;22.20;45.60;;;;;;5115569;28;20031;-38
2023/12/24 08:29:55;;;;;;;4.07;2.85;;;22.10;45.60;;;;;;5109863;28;20028;-38
2023/12/24 08:32:22;;;;;;;3.63;3.13;;;22.20;45.50;;;;;;5107027;28;20046;-37
2023/12/24 08:34:48;;;;;;;3.75;3.13;;;22.20;45.40;;;;;;5107888;28;20032;-38
2023/12/24 08:37:14;;;;;;;4.50;3.10;;;22.10;45.40;;;;;;5110175;28;20065;-38
2023/12/24 08:39:40;;;;;;;3.38;2.92;;;22.20;45.40;;;;;;5106927;28;20036;-38
2023/12/24 08:42:06;;;;;;;3.05;2.75;;;22.30;45.40;;;;;;5112262;28;20045;-38
2023/12/24 08:44:35;;;;;;;3.95;2.75;;;22.40;45.30;;;;;;5118110;27;20032;-38
2023/12/24 08:47:01;;;;;;;3.95;2.70;;;22.50;45.20;;;;;;5112293;28;20036;-37
2023/12/24 08:49:27;;;;;;;3.60;2.90;;;22.50;45.10;;;;;;5108839;28;20052;-37
2023/12/24 08:51:53;;;;;;;3.38;2.90;;;22.40;45.10;;;;;;5114161;28;20039;-37
2023/12/24 08:54:20;;;;;;;4.00;2.90;;;22.40;45.30;;;;;;5108168;28;20032;-38
2023/12/24 08:56:46;;;;;;;3.30;2.87;;;22.40;45.30;;;;;;5108136;28;20036;-38
2023/12/24 08:59:12;;;;;;;3.28;2.90;;;22.30;45.40;;;;;;5113321;28;20048;-37
2023/12/24 09:01:41;;;;;;;3.40;3.10;;;22.30;45.60;;;;;;5112474;28;20027;-37
2023/12/24 09:04:07;;;;;;;3.72;2.95;;;22.30;45.40;;;;;;5109294;28;20024;-37
2023/12/24 09:06:34;;;;;;;4.20;2.85;;;22.30;45.30;;;;;;5106403;28;20031;-37
2023/12/24 09:09:00;;;;;;;3.50;2.83;;;22.30;45.30;;;;;;5111388;28;20092;-38
2023/12/24 09:11:26;;;;;;;3.63;2.80;;;22.20;45.50;;;;;;5110705;28;20031;-38
2023/12/24 09:13:52;;;;;;;4.45;2.88;;;22.10;45.50;;;;;;5109291;28;20031;-38
2023/12/24 09:16:18;;;;;;;3.60;2.88;;;22.10;45.60;;;;;;5106662;28;20066;-38
2023/12/24 09:18:44;;;;;;;3.63;2.90;;;22.10;45.60;;;;;;5109356;28;20123;-38
2023/12/24 09:21:10;;;;;;;4.50;3.17;;;22.10;45.40;;;;;;5109654;28;20031;-38
2023/12/24 09:23:37;;;;;;;3.55;3.00;;;22.10;45.30;;;;;;5105090;28;20039;-39
2023/12/24 09:26:03;;;;;;;3.20;2.67;;;22.20;45.40;;;;;;5112313;28;20030;-38
2023/12/24 09:28:29;;;;;;;3.15;2.72;;;22.30;45.40;;;;;;5107465;28;20035;-38
2023/12/24 09:30:56;;;;;;;3.40;2.75;;;22.30;45.30;;;;;;5115920;28;20032;-38
2023/12/24 09:33:22;;;;;;;3.63;2.70;;;22.40;45.20;;;;;;5117235;28;20047;-38
2023/12/24 09:35:49;;;;;;;2.80;2.47;;;22.50;45.10;;;;;;5119084;28;20043;-38
2023/12/24 09:38:15;;;;;;;3.03;2.72;;;22.50;45.00;;;;;;5108476;28;20083;-38
2023/12/24 09:40:42;;;;;;;3.15;2.83;;;22.50;45.00;;;;;;5119440;28;20031;-38
2023/12/24 09:43:08;;;;;;;3.53;3.00;;;22.40;45.10;;;;;;5116567;28;20024;-38
2023/12/24 09:45:37;;;;;;;3.95;3.10;;;22.40;45.20;;;;;;5118043;28;20035;-38
2023/12/24 09:48:04;;;;;;;3.72;2.78;;;22.30;45.30;;;;;;5115914;28;20042;-38
2023/12/24 09:50:30;;;;;;;3.73;3.10;;;22.30;45.30;;;;;;5111766;28;20032;-38
2023/12/24 09:52:56;;;;;;;3.17;2.80;;;22.30;45.20;;;;;;5113860;28;20032;-38
2023/12/24 09:55:22;;;;;;;3.83;3.17;;;22.30;45.70;;;;;;5091597;28;20030;-38
2023/12/24 09:57:48;;;;;;;4.15;2.90;;;22.20;45.20;;;;;;5116335;28;20036;-39
2023/12/24 10:00:15;;;;;;;3.45;2.70;;;22.20;45.30;;;;;;5115502;28;20032;-38
2023/12/24 10:02:41;;;;;;;3.55;3.13;;;22.10;45.30;;;;;;5112338;28;20024;-38
2023/12/24 10:05:08;;;;;;;3.25;2.80;;;22.10;45.50;;;;;;5111389;28;20042;-38
2023/12/24 10:07:38;;;;;;;3.60;3.05;;;22.10;45.40;;;;;;5117091;27;20032;-38
2023/12/24 10:10:07;;;;;;;3.30;2.90;;;22.10;45.20;;;;;;5113187;28;20033;-37
2023/12/24 10:12:33;;;;;;;3.55;3.08;;;22.10;45.10;;;;;;5114229;27;20032;-38
2023/12/24 10:15:00;;;;;;;3.47;2.90;;;22.20;45.20;;;;;;5117787;27;20031;-36
2023/12/24 10:17:36;;;;;;;3.03;2.72;;;22.30;45.30;;;;;;5120761;28;20023;-41
2023/12/24 10:20:04;;;;;;;3.08;2.63;;;22.40;45.10;;;;;;5116285;28;20028;-38
2023/12/24 10:22:30;;;;;;;4.13;2.65;;;22.50;45.00;;;;;;5104255;27;20020;-39
2023/12/24 10:25:00;;;;;;;3.55;2.80;;;22.50;44.90;;;;;;5122938;28;20032;-39
2023/12/24 10:27:27;;;;;;;3.33;2.97;;;22.50;45.00;;;;;;5114173;27;20033;-40
2023/12/24 10:29:55;;;;;;;3.15;2.70;;;22.40;45.10;;;;;;5109940;28;20031;-39
2023/12/24 10:32:24;;;;;;;3.35;3.00;;;22.30;45.10;;;;;;5114700;28;20032;-38
2023/12/24 10:34:59;;;;;;;3.30;2.58;;;22.20;45.10;;;;;;5118528;28;20055;-38
2023/12/24 10:37:27;;;;;;;3.03;2.67;;;22.20;45.10;;;;;;5115779;28;20062;-39
2023/12/24 10:39:54;;;;;;;3.50;2.88;;;22.30;45.20;;;;;;5118640;27;20038;-39
2023/12/24 10:42:20;;;;;;;3.28;2.70;;;22.30;45.10;;;;;;5121530;28;20039;-38
2023/12/24 10:44:46;;;;;;;3.50;2.95;;;22.20;45.20;;;;;;5105538;28;20032;-39
2023/12/24 10:47:12;;;;;;;3.30;2.75;;;22.10;45.20;;;;;;5112958;28;20027;-39
2023/12/24 10:49:39;;;;;;;3.03;2.72;;;22.10;45.40;;;;;;5112632;28;20081;-38
2023/12/24 10:52:05;;;;;;;3.05;2.50;;;22.00;45.30;;;;;;5121565;28;20031;-38
2023/12/24 10:54:31;;;;;;;3.03;2.42;;;22.10;45.30;;;;;;5115630;28;20028;-39
2023/12/24 10:57:10;;;;;;;3.95;3.00;;;22.10;45.10;;;;;;5082543;28;20028;-38
2023/12/24 11:00:00;;;;;;;2.80;2.28;;;22.10;45.20;;;;;;5116439;28;20036;-38
2023/12/24 11:02:28;;;;;;;3.85;2.70;;;22.20;45.10;;;;;;5117775;28;20034;-38
2023/12/24 11:04:57;;;;;;;3.65;2.67;;;22.20;45.10;;;;;;5109990;28;20027;-38
2023/12/24 11:07:38;;;;;;;3.40;2.72;;;22.30;45.10;;;;;;5101507;27;20445;-38
2023/12/24 11:10:05;;;;;;;2.88;2.30;;;22.40;44.90;;;;;;5119088;27;20031;-39
2023/12/24 11:12:32;;;;;;;3.22;2.60;;;22.40;44.80;;;;;;5117311;28;20036;-39
2023/12/24 11:14:58;;;;;;;;;;;22.40;44.90;;;;;;5116522;28;20059;-39
2023/12/24 11:17:37;;;;;;;3.63;2.70;;;22.30;45.00;;;;;;5114963;28;19951;-39
2023/12/24 11:20:19;;;;;;;4.80;3.10;;;22.30;45.10;;;;;;5114344;28;20036;-39
2023/12/24 11:23:05;;;;;;;3.40;2.90;;;22.20;45.20;;;;;;5116288;28;20024;-39
2023/12/24 11:25:45;;;;;;;3.67;3.00;;;22.20;45.10;;;;;;5117061;28;20056;-39
2023/12/24 11:28:35;;;;;;;2.90;2.60;;;22.30;45.00;;;;;;5118091;28;20043;-39
2023/12/24 11:31:03;;;;;;;4.88;2.97;;;22.20;45.00;;;;;;5102857;28;20028;-38
2023/12/24 11:33:28;;;;;;;;;;;22.10;45.10;;;;;;5118626;28;20024;-40
2023/12/24 11:35:55;;;;;;;2.75;2.35;;;22.10;45.20;;;;;;5112427;27;19919;-39
2023/12/24 11:38:33;;;;;;;5.43;2.97;;;22.00;45.20;;;;;;5113465;28;20054;-39
2023/12/24 11:41:16;;;;;;;2.92;2.50;;;22.00;45.20;;;;;;5121775;28;20108;-38
2023/12/24 11:44:03;;;;;;;2.95;2.65;;;22.10;45.20;;;;;;5119092;28;20032;-37
2023/12/24 11:46:30;;;;;;;3.75;2.65;;;22.00;45.10;;;;;;5109059;28;20036;-38
2023/12/24 11:49:03;;;;;;;2.65;2.33;;;22.10;45.10;;;;;;5120644;28;20066;-37
2023/12/24 11:51:31;;;;;;;3.95;2.40;;;22.20;45.10;;;;;;5097897;28;20035;-38
2023/12/24 11:54:03;;;;;;;3.75;2.75;;;22.30;45.00;;;;;;5116363;28;20038;-37
2023/12/24 11:56:33;;;;;;;3.83;2.63;;;22.40;44.90;;;;;;5110387;28;20872;-37
2023/12/24 11:59:01;;;;;;;3.50;2.55;;;22.40;44.70;;;;;;5118957;28;20061;-37
2023/12/24 12:01:37;;;;;;;2.75;2.40;;;22.40;44.70;;;;;;5094289;28;20019;-37
2023/12/24 12:04:04;;;;;;;3.42;2.60;;;22.30;44.90;;;;;;5114363;28;20032;-37
2023/12/24 12:06:32;;;;;;;3.00;2.30;;;22.20;44.90;;;;;;5117137;28;20049;-36
2023/12/24 12:09:00;;;;;;;3.75;2.58;;;22.20;45.00;;;;;;5117613;28;20035;-37
2023/12/24 12:11:26;;;;;;;5.13;2.58;;;22.20;44.80;;;;;;5118548;28;20043;-36
2023/12/24 12:13:52;;;;;;;5.32;2.67;;;22.30;44.60;;;;;;5111542;27;20083;-37
2023/12/24 12:16:19;;;;;;;2.55;2.35;;;22.30;44.70;;;;;;5112504;28;20019;-37
2023/12/24 12:18:45;;;;;;;5.17;2.50;;;22.20;44.80;;;;;;5111521;28;20043;-37
2023/12/24 12:21:11;;;;;;;2.60;2.20;;;22.10;44.80;;;;;;5114872;28;20043;-37
2023/12/24 12:23:57;;;;;;;3.20;2.33;;;22.00;45.00;;;;;;5113824;28;20024;-37
2023/12/24 12:26:24;;;;;;;4.18;2.70;;;22.00;45.00;;;;;;5032247;28;20138;-37
2023/12/24 12:28:50;;;;;;;2.75;2.40;;;22.10;45.00;;;;;;5041217;28;20125;-38
2023/12/24 12:31:16;;;;;;;3.65;2.40;;;22.00;44.90;;;;;;5039067;28;20042;-38
2023/12/24 12:33:42;;;;;;;3.15;2.17;;;22.00;45.00;;;;;;5038055;28;20084;-38
2023/12/24 12:36:08;;;;;;;3.65;2.40;;;22.10;45.00;;;;;;5037013;28;20026;-39
2023/12/24 12:38:34;;;;;;;2.47;2.28;;;22.20;44.90;;;;;;5038653;28;20200;-39
2023/12/24 12:41:01;;;;;;;2.35;2.10;;;22.20;44.80;;;;;;5036691;28;20080;-39
2023/12/24 12:43:27;;;;;;;3.00;2.30;;;22.30;44.80;;;;;;5038503;28;20045;-38
2023/12/24 12:45:53;;;;;;;2.50;2.30;;;22.40;44.70;;;;;;5035154;28;20029;-38
2023/12/24 12:48:19;;;;;;;2.85;2.20;;;22.30;44.80;;;;;;5036540;28;20069;-39